Time;durP1;ratioP1;P1;durP2;ratioP2;P2;SDS_P1;SDS_P2;PMS_P1;PMS_P2;Temp;Humidity;BMP_temperature;BMP_pressure;BME280_temperature;BME280_humidity;BME280_pressure;Samples;Min_cycle;Max_cycle;Signal;HPM_P1;HPM_P2
2023/01/12 00:01:46;;;;;;;45.70;8.07;;;10.60;99.90;;;;;;5029104;28;20114;-69
2023/01/12 00:04:13;;;;;;;65.05;8.57;;;10.60;99.90;;;;;;5021569;28;20033;-68
2023/01/12 00:06:39;;;;;;;57.55;8.77;;;10.60;99.90;;;;;;5020414;28;20074;-68
2023/01/12 00:09:06;;;;;;;55.75;8.23;;;10.60;99.90;;;;;;5014896;28;20501;-69
2023/01/12 00:11:32;;;;;;;50.33;8.27;;;10.60;99.90;;;;;;5011599;28;20040;-69
2023/01/12 00:13:58;;;;;;;45.75;6.00;;;10.60;99.90;;;;;;5018440;28;20508;-67
2023/01/12 00:16:34;;;;;;;49.92;6.72;;;10.60;99.90;;;;;;5020516;28;20053;-69
2023/01/12 00:19:02;;;;;;;49.55;7.80;;;10.60;99.90;;;;;;5019502;28;20048;-68
2023/01/12 00:21:30;;;;;;;53.53;9.25;;;10.50;99.90;;;;;;5013273;28;20037;-69
2023/01/12 00:23:55;;;;;;;39.90;6.93;;;10.50;99.90;;;;;;5010142;28;20446;-69
2023/01/12 00:26:21;;;;;;;44.45;7.57;;;10.50;99.90;;;;;;5021894;28;20107;-69
2023/01/12 00:28:47;;;;;;;48.92;8.75;;;10.50;99.90;;;;;;5014783;28;20028;-69
2023/01/12 00:31:13;;;;;;;53.70;5.90;;;10.50;99.90;;;;;;5017973;28;20026;-69
2023/01/12 00:33:39;;;;;;;47.42;6.97;;;10.50;99.90;;;;;;5010136;28;20044;-70
2023/01/12 00:36:11;;;;;;;48.70;6.13;;;10.50;99.90;;;;;;5024104;28;20040;-68
2023/01/12 00:38:38;;;;;;;53.10;7.53;;;10.50;99.90;;;;;;5011066;28;20030;-68
2023/01/12 00:41:10;;;;;;;54.53;8.95;;;10.50;99.90;;;;;;5021927;28;20068;-69
2023/01/12 00:46:31;;;;;;;49.80;7.07;;;10.50;99.90;;;;;;5020123;28;20076;-68
2023/01/12 00:48:57;;;;;;;46.63;8.13;;;10.50;99.90;;;;;;5035143;28;20489;-67
2023/01/12 00:51:23;;;;;;;44.78;7.57;;;10.50;99.90;;;;;;5033390;28;20099;-69
2023/01/12 00:53:49;;;;;;;43.45;5.80;;;10.60;99.90;;;;;;5028278;28;20041;-67
2023/01/12 00:56:15;;;;;;;38.88;5.40;;;10.50;99.90;;;;;;5032505;28;20125;-67
2023/01/12 00:58:40;;;;;;;36.00;4.88;;;10.50;99.90;;;;;;5028518;28;20036;-67
2023/01/12 01:01:08;;;;;;;40.38;6.75;;;10.50;99.90;;;;;;5034811;28;20060;-68
2023/01/12 01:03:34;;;;;;;42.28;6.05;;;10.50;99.90;;;;;;5032220;28;20029;-68
2023/01/12 01:06:05;;;;;;;37.80;6.65;;;10.50;99.90;;;;;;5023665;28;20473;-68
2023/01/12 01:08:31;;;;;;;39.25;5.97;;;10.50;99.90;;;;;;5025028;28;20072;-67
2023/01/12 01:11:08;;;;;;;54.42;6.78;;;10.50;99.90;;;;;;5025979;28;20026;-65
2023/01/12 01:13:35;;;;;;;60.65;8.40;;;10.50;99.90;;;;;;5032440;28;20475;-69
2023/01/12 01:16:04;;;;;;;45.13;6.50;;;10.50;99.90;;;;;;5026507;28;20065;-68
2023/01/12 01:18:31;;;;;;;42.28;6.47;;;10.50;99.90;;;;;;5032647;28;20500;-67
2023/01/12 01:20:57;;;;;;;45.80;6.80;;;10.50;99.90;;;;;;5027049;28;20113;-67
2023/01/12 01:23:25;;;;;;;37.97;6.22;;;10.50;99.90;;;;;;5023687;28;20108;-67
2023/01/12 01:25:51;;;;;;;38.78;6.18;;;10.60;99.90;;;;;;5022336;28;20036;-68
2023/01/12 01:28:17;;;;;;;39.75;7.20;;;10.60;99.90;;;;;;5025961;28;20104;-68
2023/01/12 01:30:45;;;;;;;32.35;6.05;;;10.60;99.90;;;;;;5025475;28;20056;-68
2023/01/12 01:33:11;;;;;;;34.17;4.97;;;10.60;99.90;;;;;;5027150;28;20061;-67
2023/01/12 01:35:37;;;;;;;35.83;5.78;;;10.50;99.90;;;;;;5031437;28;20037;-68
2023/01/12 01:38:04;;;;;;;36.33;7.40;;;10.60;99.90;;;;;;5031414;28;20490;-67
2023/01/12 01:40:31;;;;;;;37.92;7.10;;;10.60;99.90;;;;;;5014511;28;20133;-66
2023/01/12 01:42:57;;;;;;;39.17;7.18;;;10.60;99.90;;;;;;5019579;28;20064;-67
2023/01/12 01:45:23;;;;;;;51.35;6.25;;;10.60;99.90;;;;;;5029356;28;20017;-67
2023/01/12 01:47:53;;;;;;;39.95;5.82;;;10.60;99.90;;;;;;5031155;28;20057;-68
2023/01/12 01:50:39;;;;;;;44.30;6.35;;;10.70;99.90;;;;;;5022648;28;20037;-66
2023/01/12 01:53:13;;;;;;;53.80;7.28;;;10.60;99.90;;;;;;5015054;28;20088;-67
2023/01/12 01:55:52;;;;;;;31.23;5.40;;;10.70;99.90;;;;;;5020981;28;20017;-67
2023/01/12 01:58:27;;;;;;;46.63;6.88;;;10.70;99.90;;;;;;5026131;28;20029;-67
2023/01/12 02:00:53;;;;;;;41.20;6.35;;;10.70;99.90;;;;;;5018299;28;20060;-67
2023/01/12 02:03:19;;;;;;;34.85;5.75;;;10.70;99.90;;;;;;5026173;28;20611;-67
2023/01/12 02:05:47;;;;;;;37.40;5.40;;;10.70;99.90;;;;;;5028830;28;20116;-67
2023/01/12 02:08:48;;;;;;;45.25;8.57;;;10.70;99.90;;;;;;5029992;28;20476;-66
2023/01/12 02:17:25;;;;;;;43.42;6.25;;;10.80;99.90;;;;;;5017408;28;20049;-67
2023/01/12 02:20:01;;;;;;;53.78;7.50;;;10.80;99.90;;;;;;4970429;28;20042;-67
2023/01/12 02:23:04;;;;;;;27.30;6.13;;;10.70;99.90;;;;;;4968961;28;20027;-67
2023/01/12 02:25:57;;;;;;;42.80;7.43;;;10.80;99.90;;;;;;4969086;28;20096;-67
2023/01/12 02:29:00;;;;;;;46.20;7.50;;;10.90;99.90;;;;;;4968487;28;20419;-67
2023/01/12 02:31:37;;;;;;;39.47;7.15;;;10.80;99.90;;;;;;4968469;28;20171;-67
2023/01/12 02:34:05;;;;;;;33.47;5.28;;;10.80;99.90;;;;;;4960631;28;20123;-67
2023/01/12 02:36:51;;;;;;;44.35;6.43;;;10.90;99.90;;;;;;4968215;28;20414;-68
2023/01/12 02:39:28;;;;;;;46.25;7.05;;;10.80;99.90;;;;;;4959275;28;20035;-67
2023/01/12 02:42:53;;;;;;;45.20;6.75;;;10.80;99.90;;;;;;4967586;28;20031;-66
2023/01/12 02:45:04;;;;;;;46.28;7.85;;;10.90;99.90;;;;;;4964574;28;20586;-67
2023/01/12 02:47:41;;;;;;;35.95;5.28;;;10.90;99.90;;;;;;4959023;28;20566;-67
2023/01/12 02:50:13;;;;;;;33.40;6.03;;;11.00;99.90;;;;;;4970251;28;20177;-68
2023/01/12 02:52:42;;;;;;;33.15;4.50;;;11.10;99.90;;;;;;4967606;28;20046;-66
2023/01/12 02:55:09;;;;;;;28.77;5.70;;;11.10;99.90;;;;;;4965187;28;20050;-67
2023/01/12 02:57:36;;;;;;;28.80;3.90;;;11.10;99.90;;;;;;5017678;28;20085;-67
2023/01/12 03:00:05;;;;;;;44.83;7.05;;;11.20;99.90;;;;;;5013148;28;20092;-67
2023/01/12 03:02:32;;;;;;;37.78;6.25;;;11.20;99.90;;;;;;5022556;28;20033;-67
2023/01/12 03:05:35;;;;;;;31.75;5.95;;;11.20;99.90;;;;;;5019834;28;20033;-66
2023/01/12 03:08:03;;;;;;;40.33;6.78;;;11.20;99.90;;;;;;5017646;28;20104;-67
2023/01/12 03:11:20;;;;;;;29.77;5.13;;;11.10;99.90;;;;;;5023545;28;20128;-67
2023/01/12 03:13:50;;;;;;;26.67;4.60;;;11.10;99.90;;;;;;4996690;28;20045;-67
2023/01/12 03:16:21;;;;;;;36.72;5.70;;;11.10;99.90;;;;;;5024231;28;20033;-66
2023/01/12 03:19:24;;;;;;;36.60;5.82;;;11.10;99.90;;;;;;5011319;28;20536;-66
2023/01/12 03:22:06;;;;;;;30.35;5.70;;;11.10;99.90;;;;;;5018666;28;20535;-68
2023/01/12 03:24:37;;;;;;;;;;;11.10;99.90;;;;;;5023489;28;20037;-67
2023/01/12 03:27:17;;;;;;;29.13;5.15;;;11.00;99.90;;;;;;5035470;28;19909;-67
2023/01/12 03:29:49;;;;;;;36.42;6.40;;;11.00;99.90;;;;;;5022740;28;20022;-68
2023/01/12 03:32:16;;;;;;;43.15;7.72;;;11.00;99.90;;;;;;5017924;28;20033;-67
2023/01/12 03:34:44;;;;;;;37.83;5.88;;;11.00;99.90;;;;;;5023910;28;20030;-67
2023/01/12 03:37:35;;;;;;;32.25;5.40;;;11.00;99.90;;;;;;5016378;28;20088;-68
2023/01/12 03:40:22;;;;;;;43.70;6.32;;;10.90;99.90;;;;;;5020773;28;20052;-69
2023/01/12 03:43:08;;;;;;;39.83;5.45;;;10.90;99.90;;;;;;5022499;28;20026;-67
2023/01/12 03:45:34;;;;;;;40.50;5.90;;;10.90;99.90;;;;;;5018584;28;20096;-68
2023/01/12 03:48:13;;;;;;;35.70;6.07;;;11.00;99.90;;;;;;5020182;28;20093;-69
2023/01/12 03:50:52;;;;;;;38.28;6.20;;;10.90;99.90;;;;;;5010934;28;20033;-69
2023/01/12 03:53:21;;;;;;;43.47;7.03;;;10.90;99.90;;;;;;5023024;28;20036;-69
2023/01/12 03:55:51;;;;;;;34.20;5.65;;;10.90;99.90;;;;;;5020730;28;20059;-67
2023/01/12 03:58:17;;;;;;;32.85;5.43;;;10.90;99.90;;;;;;5019019;28;20029;-69
2023/01/12 04:00:43;;;;;;;40.03;4.90;;;11.00;99.90;;;;;;5012160;28;20061;-69
2023/01/12 04:03:11;;;;;;;26.65;5.15;;;10.90;99.90;;;;;;5012785;28;20061;-70
2023/01/12 04:05:38;;;;;;;32.78;6.72;;;10.90;99.90;;;;;;5022196;28;20478;-70
2023/01/12 04:08:04;;;;;;;32.58;5.40;;;10.90;99.90;;;;;;5018510;28;20030;-70
2023/01/12 04:10:30;;;;;;;37.58;5.75;;;10.90;99.90;;;;;;5016052;28;20131;-71
2023/01/12 04:12:56;;;;;;;40.53;7.38;;;10.90;99.90;;;;;;5023639;28;20037;-70
2023/01/12 04:15:22;;;;;;;44.83;6.95;;;10.90;99.90;;;;;;5020089;28;20017;-70
2023/01/12 04:17:48;;;;;;;40.72;5.85;;;10.90;99.90;;;;;;5024206;28;20029;-71
2023/01/12 04:20:15;;;;;;;29.48;5.15;;;10.90;99.90;;;;;;5022917;28;20024;-70
2023/01/12 04:22:43;;;;;;;38.75;5.80;;;10.90;99.90;;;;;;5013044;28;20116;-73
2023/01/12 04:25:15;;;;;;;31.42;5.03;;;10.90;99.90;;;;;;5016582;28;20026;-71
2023/01/12 04:27:52;;;;;;;41.83;5.75;;;10.90;99.90;;;;;;5015254;28;20828;-71
2023/01/12 04:30:21;;;;;;;32.42;5.53;;;10.90;99.90;;;;;;5017486;28;20034;-70
2023/01/12 04:32:48;;;;;;;38.08;7.40;;;10.90;99.90;;;;;;5023866;28;20032;-71
2023/01/12 04:35:15;;;;;;;43.05;6.70;;;10.90;99.90;;;;;;5021400;28;20057;-70
2023/01/12 04:37:42;;;;;;;30.02;5.25;;;10.90;99.90;;;;;;5024561;28;20397;-70
2023/01/12 04:40:09;;;;;;;34.28;5.68;;;11.00;99.90;;;;;;5019137;28;20437;-70
2023/01/12 04:45:20;;;;;;;32.63;4.30;;;10.90;99.90;;;;;;5019553;28;20020;-70
2023/01/12 04:47:47;;;;;;;36.53;5.13;;;11.00;99.90;;;;;;5021370;28;20140;-71
2023/01/12 04:50:13;;;;;;;32.45;4.88;;;10.90;99.90;;;;;;5013787;28;20113;-72
2023/01/12 04:52:40;;;;;;;31.98;6.05;;;11.00;99.90;;;;;;5027305;28;20465;-71
2023/01/12 04:55:06;;;;;;;40.95;5.68;;;10.90;99.90;;;;;;5026536;28;20025;-70
2023/01/12 04:57:32;;;;;;;34.65;5.85;;;10.90;99.90;;;;;;5017719;28;20041;-73
2023/01/12 04:59:58;;;;;;;30.85;4.82;;;11.00;99.90;;;;;;5021069;28;20026;-72
2023/01/12 05:02:23;;;;;;;33.15;5.30;;;11.00;99.90;;;;;;5021302;28;20073;-71
2023/01/12 05:04:49;;;;;;;39.78;5.28;;;10.90;99.90;;;;;;5027996;28;20496;-70
2023/01/12 05:07:16;;;;;;;26.90;7.03;;;11.00;99.90;;;;;;5012458;28;20038;-71
2023/01/12 05:12:28;;;;;;;34.83;5.25;;;11.00;99.90;;;;;;5020010;28;20088;-70
2023/01/12 05:14:54;;;;;;;39.22;5.55;;;11.00;99.90;;;;;;5017259;28;20050;-70
2023/01/12 05:17:20;;;;;;;29.90;5.95;;;10.90;99.90;;;;;;5014346;28;20058;-69
2023/01/12 05:19:48;;;;;;;30.75;4.75;;;11.00;99.90;;;;;;5009554;28;20022;-69
2023/01/12 05:22:14;;;;;;;38.40;4.95;;;10.90;99.90;;;;;;5024000;28;20038;-69
2023/01/12 05:24:40;;;;;;;34.63;5.50;;;11.00;99.90;;;;;;5011612;28;20026;-69
2023/01/12 05:27:05;;;;;;;42.45;6.30;;;11.00;99.90;;;;;;5012932;28;20052;-69
2023/01/12 05:29:31;;;;;;;41.03;7.18;;;11.00;99.90;;;;;;5023907;28;20116;-69
2023/01/12 05:32:04;;;;;;;31.92;5.53;;;11.00;99.90;;;;;;5020449;28;20026;-69
2023/01/12 05:34:29;;;;;;;39.08;6.20;;;11.00;99.90;;;;;;5024501;28;20030;-68
2023/01/12 05:36:55;;;;;;;38.88;5.32;;;10.90;99.90;;;;;;5024376;28;20033;-68
2023/01/12 05:39:21;;;;;;;46.22;6.40;;;11.00;99.90;;;;;;5027320;28;20033;-68
2023/01/12 05:44:32;;;;;;;42.70;5.78;;;11.00;99.90;;;;;;5027169;28;20061;-68
2023/01/12 05:46:57;;;;;;;44.72;5.97;;;11.10;99.90;;;;;;5017476;28;20076;-68
2023/01/12 05:49:23;;;;;;;36.10;6.43;;;11.10;99.90;;;;;;5027275;28;20025;-69
2023/01/12 05:51:49;;;;;;;35.63;5.70;;;11.00;99.90;;;;;;5022454;28;20085;-69
2023/01/12 05:54:15;;;;;;;39.63;6.95;;;11.00;99.90;;;;;;5029481;28;20057;-70
2023/01/12 05:56:42;;;;;;;37.08;5.57;;;11.00;99.90;;;;;;5022276;28;20065;-70
2023/01/12 05:59:10;;;;;;;30.10;6.22;;;11.00;99.90;;;;;;5029829;28;20040;-70
2023/01/12 06:01:39;;;;;;;35.88;6.20;;;11.00;99.90;;;;;;5025564;28;20083;-69
2023/01/12 06:04:04;;;;;;;44.75;6.80;;;10.90;99.90;;;;;;5024707;28;20029;-70
2023/01/12 06:06:31;;;;;;;47.88;7.93;;;11.00;99.90;;;;;;5026788;28;20486;-69
2023/01/12 06:08:58;;;;;;;31.38;5.53;;;11.00;99.90;;;;;;5020960;28;20064;-70
2023/01/12 06:14:10;;;;;;;54.95;10.18;;;10.90;99.90;;;;;;5019843;28;20032;-70
2023/01/12 06:16:38;;;;;;;42.53;5.45;;;10.90;99.90;;;;;;5029173;28;20033;-69
2023/01/12 06:19:04;;;;;;;32.38;5.57;;;11.00;99.90;;;;;;5030613;28;20433;-70
2023/01/12 06:21:31;;;;;;;48.63;6.85;;;11.00;99.90;;;;;;5026860;28;20025;-70
2023/01/12 06:23:57;;;;;;;39.33;6.22;;;10.90;99.90;;;;;;5019721;28;20037;-69
2023/01/12 06:26:23;;;;;;;37.20;5.35;;;10.90;99.90;;;;;;5025517;28;20030;-70
2023/01/12 06:28:55;;;;;;;47.25;6.03;;;10.90;99.90;;;;;;5029984;28;20033;-70
2023/01/12 06:31:28;;;;;;;44.55;7.15;;;10.90;99.90;;;;;;5025873;28;20029;-70
2023/01/12 06:33:53;;;;;;;;;;;10.90;99.90;;;;;;5030476;28;20033;-70
2023/01/12 06:36:19;;;;;;;41.28;6.43;;;10.90;99.90;;;;;;5028416;28;19932;-70
2023/01/12 06:38:45;;;;;;;40.00;7.35;;;11.00;99.90;;;;;;5028103;28;20017;-70
2023/01/12 06:43:58;;;;;;;38.80;5.68;;;11.00;99.90;;;;;;5006262;28;20559;-70
2023/01/12 06:46:27;;;;;;;30.98;5.22;;;11.10;99.90;;;;;;5021383;28;20037;-70
2023/01/12 06:48:59;;;;;;;36.50;5.78;;;11.00;99.90;;;;;;5023632;28;20030;-69
2023/01/12 06:51:25;;;;;;;31.25;5.28;;;11.00;99.90;;;;;;5025089;28;20036;-71
2023/01/12 06:53:51;;;;;;;30.95;4.00;;;11.00;99.90;;;;;;5016813;28;20409;-70
2023/01/12 06:56:17;;;;;;;37.80;5.43;;;11.00;99.90;;;;;;5028707;28;20485;-72
2023/01/12 06:58:43;;;;;;;35.40;6.45;;;11.00;99.90;;;;;;5022557;28;20055;-70
2023/01/12 07:01:08;;;;;;;32.78;6.00;;;11.00;99.90;;;;;;5020172;28;20030;-72
2023/01/12 07:03:34;;;;;;;34.28;7.38;;;10.90;99.90;;;;;;5020514;28;20079;-72
2023/01/12 07:06:00;;;;;;;30.58;5.03;;;11.00;99.90;;;;;;5022684;28;20025;-71
2023/01/12 07:08:26;;;;;;;34.20;5.55;;;11.00;99.90;;;;;;5022511;28;20029;-71
2023/01/12 07:10:52;;;;;;;40.03;5.88;;;11.00;99.90;;;;;;5020327;28;20105;-71
2023/01/12 07:13:18;;;;;;;49.03;6.28;;;11.00;99.90;;;;;;5024673;28;20030;-72
2023/01/12 07:15:51;;;;;;;47.47;5.43;;;11.00;99.90;;;;;;5035232;28;20037;-71
2023/01/12 07:18:17;;;;;;;33.28;4.88;;;11.00;99.90;;;;;;5023934;28;20473;-71
2023/01/12 07:20:44;;;;;;;40.35;5.60;;;11.00;99.90;;;;;;5022272;28;20064;-69
2023/01/12 07:23:10;;;;;;;34.20;5.63;;;11.00;99.90;;;;;;5027253;28;20036;-71
2023/01/12 07:25:36;;;;;;;45.75;6.07;;;11.00;99.90;;;;;;5021225;28;20013;-71
2023/01/12 07:28:02;;;;;;;34.40;5.43;;;10.90;99.90;;;;;;5024641;28;20497;-71
2023/01/12 07:30:28;;;;;;;40.25;5.97;;;10.90;99.90;;;;;;5025895;28;20078;-73
2023/01/12 07:32:54;;;;;;;46.15;5.80;;;11.00;99.90;;;;;;5018703;28;20079;-71
2023/01/12 07:35:20;;;;;;;40.00;6.00;;;10.90;99.90;;;;;;5028955;28;20096;-72
2023/01/12 07:37:52;;;;;;;35.53;6.57;;;10.90;99.90;;;;;;5027991;28;20519;-72
2023/01/12 07:40:18;;;;;;;37.33;5.70;;;11.00;99.90;;;;;;5027735;28;20017;-72
2023/01/12 07:42:45;;;;;;;38.03;4.78;;;11.00;99.90;;;;;;5015081;28;20112;-73
2023/01/12 07:45:11;;;;;;;55.30;7.13;;;10.90;99.90;;;;;;5024297;28;20022;-71
2023/01/12 07:47:37;;;;;;;34.80;6.28;;;11.00;99.90;;;;;;5024390;28;20041;-72
2023/01/12 07:50:03;;;;;;;37.75;6.07;;;11.00;99.90;;;;;;5021098;28;20090;-72
2023/01/12 07:52:29;;;;;;;38.53;6.07;;;11.00;99.90;;;;;;5016524;28;20033;-73
2023/01/12 07:54:56;;;;;;;43.00;6.72;;;11.00;99.90;;;;;;5026487;28;20025;-74
2023/01/12 07:57:28;;;;;;;33.72;4.45;;;11.00;99.90;;;;;;5026747;28;20075;-74
2023/01/12 07:59:54;;;;;;;39.92;4.47;;;11.00;99.90;;;;;;5022803;28;20033;-73
2023/01/12 08:02:28;;;;;;;42.38;6.55;;;11.00;99.90;;;;;;5029729;28;20086;-73
2023/01/12 08:04:54;;;;;;;45.65;7.35;;;11.00;99.90;;;;;;5019377;28;20030;-74
2023/01/12 08:07:20;;;;;;;40.35;6.35;;;11.00;99.90;;;;;;5029229;28;20370;-71
2023/01/12 08:09:45;;;;;;;33.75;6.40;;;11.00;99.90;;;;;;5028059;28;20034;-73
2023/01/12 08:12:11;;;;;;;44.97;6.75;;;11.00;99.90;;;;;;5027963;28;20034;-71
2023/01/12 08:14:47;;;;;;;59.17;6.35;;;11.00;99.90;;;;;;5027546;28;20477;-72
2023/01/12 08:17:19;;;;;;;49.20;6.18;;;11.00;99.90;;;;;;5028047;28;20041;-72
2023/01/12 08:19:56;;;;;;;39.08;6.30;;;11.00;99.90;;;;;;5028330;28;20049;-74
2023/01/12 08:22:30;;;;;;;39.20;6.13;;;11.00;99.90;;;;;;5027080;28;20037;-72
2023/01/12 08:25:05;;;;;;;37.92;5.30;;;11.00;99.90;;;;;;5020907;28;20034;-72
2023/01/12 08:27:36;;;;;;;50.50;6.20;;;11.00;99.90;;;;;;5022275;28;20477;-72
2023/01/12 08:30:14;;;;;;;43.42;6.10;;;11.00;99.90;;;;;;5018678;28;20036;-71
2023/01/12 08:32:41;;;;;;;46.60;5.40;;;11.00;99.90;;;;;;5021524;28;20100;-71
2023/01/12 08:35:08;;;;;;;39.45;7.68;;;11.00;99.90;;;;;;5028555;28;20115;-72
2023/01/12 08:37:34;;;;;;;38.10;5.22;;;11.00;99.90;;;;;;5024857;28;20167;-71
2023/01/12 08:40:01;;;;;;;42.53;5.97;;;11.00;99.90;;;;;;5019041;28;20029;-71
2023/01/12 08:42:27;;;;;;;46.67;6.55;;;11.10;99.90;;;;;;5024482;28;20036;-71
2023/01/12 08:44:54;;;;;;;48.28;6.82;;;11.10;99.90;;;;;;5021140;28;20100;-71
2023/01/12 08:47:27;;;;;;;42.45;6.30;;;11.10;99.90;;;;;;5016272;28;20049;-71
2023/01/12 08:50:00;;;;;;;53.50;7.00;;;11.10;99.90;;;;;;5018977;28;20088;-71
2023/01/12 08:52:31;;;;;;;40.80;8.50;;;11.10;99.90;;;;;;5024065;28;20033;-71
2023/01/12 08:55:00;;;;;;;38.38;5.45;;;11.10;99.90;;;;;;5022561;28;20032;-70
2023/01/12 08:57:26;;;;;;;32.53;4.72;;;11.10;99.90;;;;;;5015453;28;20049;-73
2023/01/12 08:59:52;;;;;;;37.33;5.15;;;11.10;99.90;;;;;;5025231;28;20025;-72
2023/01/12 09:02:20;;;;;;;29.85;4.82;;;11.10;99.90;;;;;;5027156;28;20469;-72
2023/01/12 09:04:48;;;;;;;32.65;6.03;;;11.10;99.90;;;;;;5028461;28;20529;-74
2023/01/12 09:07:15;;;;;;;31.50;4.45;;;11.10;99.90;;;;;;5026336;28;20072;-73
2023/01/12 09:09:41;;;;;;;27.85;4.35;;;11.10;99.90;;;;;;5024833;28;20108;-73
2023/01/12 09:12:07;;;;;;;29.95;4.50;;;11.10;99.90;;;;;;5022785;28;20112;-72
2023/01/12 09:14:37;;;;;;;28.80;4.55;;;11.10;99.90;;;;;;5027091;28;20037;-74
2023/01/12 09:17:09;;;;;;;32.13;3.72;;;11.10;99.90;;;;;;5027337;28;20030;-73
2023/01/12 09:19:34;;;;;;;36.90;4.82;;;11.10;99.90;;;;;;5027969;28;20026;-73
2023/01/12 09:22:00;;;;;;;32.20;5.40;;;11.10;99.90;;;;;;5026623;28;20100;-73
2023/01/12 09:24:26;;;;;;;29.13;4.15;;;11.00;99.90;;;;;;5027953;28;20033;-73
2023/01/12 09:26:52;;;;;;;41.38;4.78;;;11.10;99.90;;;;;;5026152;28;20463;-73
2023/01/12 09:29:18;;;;;;;43.42;5.65;;;11.00;99.90;;;;;;5022508;28;20030;-73
2023/01/12 09:31:46;;;;;;;47.17;8.35;;;11.00;99.90;;;;;;5022314;28;20128;-73
2023/01/12 09:34:27;;;;;;;32.92;4.03;;;11.00;99.90;;;;;;5029774;28;20060;-73
2023/01/12 09:36:55;;;;;;;36.70;4.78;;;11.00;99.90;;;;;;5027458;28;20044;-73
2023/01/12 09:39:31;;;;;;;32.88;6.10;;;11.00;99.90;;;;;;5029840;28;20112;-73
2023/01/12 09:47:52;;;;;;;32.15;4.53;;;11.10;99.90;;;;;;5023749;28;20090;-74
2023/01/12 09:50:47;;;;;;;26.00;3.70;;;11.10;99.90;;;;;;5030504;28;20358;-73
2023/01/12 09:53:22;;;;;;;26.20;3.63;;;11.10;99.90;;;;;;5026510;28;20504;-74
2023/01/12 09:56:06;;;;;;;26.27;4.72;;;11.10;99.90;;;;;;5025947;28;20038;-73
2023/01/12 09:59:08;;;;;;;22.02;2.72;;;11.10;99.90;;;;;;5028764;28;20033;-73
2023/01/12 10:01:35;;;;;;;22.25;3.70;;;11.10;99.90;;;;;;5028009;28;20025;-76
2023/01/12 10:04:06;;;;;;;25.55;4.47;;;11.00;99.90;;;;;;5026641;28;20196;-74
2023/01/12 10:06:34;;;;;;;21.75;4.28;;;11.10;99.90;;;;;;5027655;28;20030;-74
2023/01/12 10:09:04;;;;;;;19.75;2.92;;;11.10;99.90;;;;;;5027206;28;20442;-74
2023/01/12 10:11:42;;;;;;;19.10;2.08;;;11.10;99.90;;;;;;5021513;28;20030;-72
2023/01/12 10:14:18;;;;;;;19.15;2.80;;;11.20;99.90;;;;;;5023796;28;20052;-74
2023/01/12 10:17:11;;;;;;;16.27;2.90;;;11.10;99.90;;;;;;5022485;28;20104;-76
2023/01/12 10:19:51;;;;;;;16.13;4.43;;;11.20;99.90;;;;;;5017827;28;20029;-76
2023/01/12 10:22:38;;;;;;;17.05;2.40;;;11.10;99.90;;;;;;5026917;28;20108;-76
2023/01/12 10:25:19;;;;;;;24.92;3.00;;;11.10;99.90;;;;;;5027152;28;20037;-77
2023/01/12 10:27:51;;;;;;;24.00;3.90;;;11.10;99.90;;;;;;5026439;28;20108;-74
2023/01/12 10:30:24;;;;;;;20.30;3.10;;;11.10;99.90;;;;;;5025908;28;20037;-73
2023/01/12 10:32:51;;;;;;;21.17;4.32;;;11.10;99.90;;;;;;5027494;28;20038;-73
2023/01/12 10:35:20;;;;;;;20.83;3.80;;;11.10;99.90;;;;;;5026655;28;20104;-72
2023/01/12 10:37:55;;;;;;;23.52;3.40;;;11.10;99.90;;;;;;5023242;28;20045;-73
2023/01/12 10:40:29;;;;;;;29.92;3.38;;;11.10;99.90;;;;;;5029650;28;20504;-71
2023/01/12 10:43:18;;;;;;;30.90;4.40;;;11.10;99.90;;;;;;5022966;28;20018;-72
2023/01/12 10:46:00;;;;;;;27.33;3.10;;;11.10;99.90;;;;;;5023044;28;20026;-74
2023/01/12 10:48:26;;;;;;;23.95;3.30;;;11.10;99.90;;;;;;5025532;28;20037;-76
2023/01/12 10:51:02;;;;;;;36.47;5.85;;;11.10;99.90;;;;;;5024478;28;20159;-76
2023/01/12 10:54:00;;;;;;;24.90;2.92;;;11.10;99.90;;;;;;5019404;28;20112;-75
2023/01/12 10:56:36;;;;;;;23.33;3.53;;;11.10;99.90;;;;;;5019659;28;20049;-74
2023/01/12 10:59:18;;;;;;;23.55;4.50;;;11.10;99.90;;;;;;5020724;28;20120;-75
2023/01/12 11:02:12;;;;;;;23.67;4.75;;;11.20;99.90;;;;;;5020480;28;20061;-74
2023/01/12 11:04:47;;;;;;;20.90;4.40;;;11.20;99.90;;;;;;5012449;28;20460;-74
2023/01/12 11:07:29;;;;;;;21.95;4.07;;;11.10;99.90;;;;;;5023313;28;20120;-74
2023/01/12 11:10:19;;;;;;;23.65;4.10;;;11.10;99.90;;;;;;5021848;28;20021;-74
2023/01/12 11:12:54;;;;;;;29.75;3.88;;;11.20;99.90;;;;;;5012941;28;20029;-73
2023/01/12 11:15:25;;;;;;;21.08;2.70;;;11.20;99.90;;;;;;5024394;28;20025;-73
2023/01/12 11:18:38;;;;;;;27.15;4.53;;;11.20;99.90;;;;;;5025942;28;20037;-74
2023/01/12 11:21:11;;;;;;;25.02;3.40;;;11.20;99.90;;;;;;5018723;28;20479;-75
2023/01/12 11:23:49;;;;;;;24.02;3.17;;;11.20;99.90;;;;;;5019822;28;20041;-74
2023/01/12 11:26:22;;;;;;;24.25;3.40;;;11.20;99.90;;;;;;5020968;28;20474;-75
2023/01/12 11:28:58;;;;;;;25.02;3.70;;;11.30;99.90;;;;;;5022891;28;20037;-75
2023/01/12 11:31:34;;;;;;;22.70;4.22;;;11.20;99.90;;;;;;5023070;28;20029;-71
2023/01/12 11:34:15;;;;;;;27.95;3.55;;;11.20;99.90;;;;;;5022029;28;20065;-76
2023/01/12 11:36:50;;;;;;;19.45;2.40;;;11.20;99.90;;;;;;5019987;28;20399;-74
2023/01/12 11:39:22;;;;;;;19.45;2.30;;;11.10;99.90;;;;;;5026022;28;20045;-74
2023/01/12 11:45:00;;;;;;;17.70;2.10;;;11.20;99.90;;;;;;5020685;28;20115;-74
2023/01/12 11:47:35;;;;;;;15.38;3.47;;;11.30;99.90;;;;;;5023977;28;20056;-73
2023/01/12 11:50:26;;;;;;;17.83;2.53;;;11.30;99.90;;;;;;5023461;28;20036;-75
2023/01/12 11:52:54;;;;;;;18.00;4.13;;;11.30;99.90;;;;;;5022595;28;20045;-74
2023/01/12 11:55:58;;;;;;;20.67;3.00;;;11.20;99.90;;;;;;5025826;28;20029;-75
2023/01/12 11:58:36;;;;;;;12.85;3.28;;;11.30;99.90;;;;;;4964644;28;20148;-76
2023/01/12 12:01:18;;;;;;;16.23;3.03;;;11.30;99.90;;;;;;4970303;28;20081;-74
2023/01/12 12:04:02;;;;;;;;;;;11.30;99.90;;;;;;4983980;28;20687;-77
2023/01/12 12:06:37;;;;;;;18.90;2.70;;;11.20;99.90;;;;;;4981365;28;20290;-75
2023/01/12 12:09:26;;;;;;;26.23;3.63;;;11.20;99.90;;;;;;4987187;28;20049;-74
2023/01/12 12:12:01;;;;;;;25.13;4.95;;;11.20;99.90;;;;;;4983047;28;20040;-76
2023/01/12 12:14:55;;;;;;;22.98;4.03;;;11.20;99.90;;;;;;4976282;28;20152;-74
2023/01/12 12:17:47;;;;;;;19.42;5.50;;;11.20;99.90;;;;;;4977926;28;20061;-75
2023/01/12 12:20:40;;;;;;;12.75;2.40;;;11.20;99.90;;;;;;4983009;28;20096;-75
2023/01/12 12:23:28;;;;;;;21.38;3.25;;;11.20;99.90;;;;;;4981197;28;20129;-75
2023/01/12 12:26:41;;;;;;;26.35;4.15;;;11.20;99.90;;;;;;4984150;28;20027;-74
2023/01/12 12:30:02;;;;;;;32.95;4.93;;;11.20;99.90;;;;;;4982439;28;20043;-77
2023/01/12 12:32:41;;;;;;;31.10;4.35;;;11.30;99.90;;;;;;4982287;28;20037;-77
2023/01/12 12:35:22;;;;;;;28.85;3.95;;;11.30;99.90;;;;;;5001158;28;20045;-73
2023/01/12 12:37:59;;;;;;;27.15;4.75;;;11.30;99.90;;;;;;5017900;28;20389;-76
2023/01/12 12:46:20;;;;;;;39.83;6.80;;;11.30;99.90;;;;;;5023722;28;20101;-75
2023/01/12 12:49:04;;;;;;;40.50;6.07;;;11.40;99.90;;;;;;5019598;28;20021;-76
2023/01/12 12:51:32;;;;;;;39.92;7.32;;;11.40;99.90;;;;;;5013932;28;20037;-76
2023/01/12 12:54:05;;;;;;;51.88;6.18;;;11.40;99.90;;;;;;5025666;28;20025;-76
2023/01/12 12:56:34;;;;;;;35.42;6.35;;;11.40;99.90;;;;;;5039685;28;20028;-77
2023/01/12 12:59:00;;;;;;;41.33;5.70;;;11.30;99.90;;;;;;5020645;28;20037;-77
2023/01/12 13:01:29;;;;;;;48.97;9.00;;;11.30;99.90;;;;;;5024476;28;20108;-77
2023/01/12 13:04:01;;;;;;;44.95;7.45;;;11.30;99.90;;;;;;5022895;28;20025;-74
2023/01/12 13:06:30;;;;;;;34.13;4.20;;;11.20;99.90;;;;;;5020499;28;20022;-74
2023/01/12 13:09:04;;;;;;;34.13;4.55;;;11.30;99.90;;;;;;5021901;28;20037;-73
2023/01/12 13:11:52;;;;;;;29.55;4.80;;;11.30;99.90;;;;;;5020410;28;20029;-77
2023/01/12 13:14:34;;;;;;;33.78;4.90;;;11.20;99.90;;;;;;5017489;28;20044;-81
2023/01/12 13:17:05;;;;;;;36.17;5.45;;;11.20;99.90;;;;;;5024829;28;20635;-75
2023/01/12 13:19:40;;;;;;;45.83;6.47;;;11.20;99.90;;;;;;5022606;28;20017;-75
2023/01/12 13:22:36;;;;;;;28.23;5.57;;;11.20;99.90;;;;;;5027226;28;20040;-75
2023/01/12 13:25:21;;;;;;;39.63;4.32;;;11.20;99.90;;;;;;5023549;28;20040;-74
2023/01/12 13:28:00;;;;;;;26.00;5.10;;;11.30;99.90;;;;;;5018498;28;20057;-73
2023/01/12 13:30:25;;;;;;;33.83;6.10;;;11.30;99.90;;;;;;5038260;28;20469;-75
2023/01/12 13:33:08;;;;;;;35.97;5.68;;;11.30;99.90;;;;;;5020401;28;20038;-73
2023/01/12 13:35:34;;;;;;;25.17;3.60;;;11.30;99.90;;;;;;5029072;28;20083;-77
2023/01/12 13:38:25;;;;;;;29.88;4.43;;;11.30;99.90;;;;;;5026552;28;20053;-76
2023/01/12 13:40:52;;;;;;;35.75;6.07;;;11.30;99.90;;;;;;5018223;28;20021;-76
2023/01/12 13:43:29;;;;;;;32.10;4.80;;;11.30;99.90;;;;;;5019001;28;20489;-78